createdAt,value
2019-03-31T00:00:35.296Z,1013.79
2019-03-31T00:01:35.320Z,1013.79
2019-03-31T00:02:35.263Z,1013.77
2019-03-31T00:03:35.242Z,1013.74
2019-03-31T00:04:35.231Z,1013.76
2019-03-31T00:05:37.317Z,1013.75
2019-03-31T00:06:35.208Z,1013.74
2019-03-31T00:07:35.207Z,1013.70
2019-03-31T00:08:35.189Z,1013.69
2019-03-31T00:09:35.177Z,1013.78
2019-03-31T00:10:35.186Z,1013.75
2019-03-31T00:11:35.156Z,1013.79
2019-03-31T00:12:35.146Z,1013.74
2019-03-31T00:13:35.139Z,1013.75
2019-03-31T00:14:35.127Z,1013.72
2019-03-31T00:15:35.134Z,1013.72
2019-03-31T00:16:35.100Z,1013.68
2019-03-31T00:17:35.092Z,1013.74
2019-03-31T00:18:35.085Z,1013.68
2019-03-31T00:19:35.624Z,1013.77
2019-03-31T00:20:35.062Z,1013.70
2019-03-31T00:21:35.062Z,1013.75
2019-03-31T00:22:35.042Z,1013.81
2019-03-31T00:23:35.025Z,1013.79
2019-03-31T00:24:35.018Z,1013.79
2019-03-31T00:25:35.010Z,1013.79
2019-03-31T00:26:35.010Z,1013.78
2019-03-31T00:27:34.981Z,1013.77
2019-03-31T00:28:34.978Z,1013.76
2019-03-31T00:29:34.959Z,1013.79
2019-03-31T00:30:34.953Z,1013.84
2019-03-31T00:31:34.954Z,1013.79
2019-03-31T00:32:34.929Z,1013.82
2019-03-31T00:33:34.922Z,1013.77
2019-03-31T00:34:34.912Z,1013.76
2019-03-31T00:35:34.902Z,1013.78
2019-03-31T00:36:34.906Z,1013.76
2019-03-31T00:37:34.876Z,1013.82
2019-03-31T00:38:34.862Z,1013.81
2019-03-31T00:39:34.850Z,1013.82
2019-03-31T00:40:34.860Z,1013.80
2019-03-31T00:41:34.844Z,1013.85
2019-03-31T00:42:34.826Z,1013.78
2019-03-31T00:43:34.852Z,1013.78
2019-03-31T00:44:34.806Z,1013.84
2019-03-31T00:45:34.795Z,1013.80
2019-03-31T00:46:34.796Z,1013.84
2019-03-31T00:47:34.766Z,1013.83
2019-03-31T00:48:34.760Z,1013.86
2019-03-31T00:49:34.751Z,1013.81
2019-03-31T00:50:34.738Z,1013.80
2019-03-31T00:51:34.746Z,1013.82
2019-03-31T00:52:34.719Z,1013.84
2019-03-31T00:53:34.780Z,1013.83
2019-03-31T00:54:34.700Z,1013.84
2019-03-31T00:55:34.685Z,1013.84
2019-03-31T00:56:34.705Z,1013.89
2019-03-31T00:57:34.666Z,1013.92
2019-03-31T00:58:34.656Z,1013.87
2019-03-31T00:59:34.638Z,1013.93
2019-03-31T01:00:34.628Z,1013.93
2019-03-31T01:01:36.745Z,1013.92
2019-03-31T01:02:34.627Z,1013.90
2019-03-31T01:03:34.631Z,1013.89
2019-03-31T01:04:34.586Z,1013.98
2019-03-31T01:05:34.578Z,1013.95
2019-03-31T01:06:34.564Z,1013.95
2019-03-31T01:07:34.573Z,1013.91
2019-03-31T01:08:34.553Z,1013.96
2019-03-31T01:09:34.534Z,1013.97
2019-03-31T01:10:34.528Z,1013.99
2019-03-31T01:11:34.512Z,1014.05
2019-03-31T01:12:34.514Z,1014.08
2019-03-31T01:13:34.492Z,1014.04
2019-03-31T01:14:34.482Z,1014.03
2019-03-31T01:15:34.469Z,1014.09
2019-03-31T01:16:34.470Z,1014.03
2019-03-31T01:17:34.468Z,1014.05
2019-03-31T01:18:34.590Z,1014.04
2019-03-31T01:19:34.485Z,1014.02
2019-03-31T01:20:34.456Z,1014.01
2019-03-31T01:21:34.428Z,1014.06
2019-03-31T01:22:34.574Z,1014.10
2019-03-31T01:23:34.655Z,1014.08
2019-03-31T01:24:34.390Z,1014.12
2019-03-31T01:25:34.390Z,1014.07
2019-03-31T01:26:34.356Z,1014.09
2019-03-31T01:27:34.450Z,1014.07
2019-03-31T01:28:34.342Z,1014.07
2019-03-31T01:29:34.338Z,1014.12
2019-03-31T01:30:34.308Z,1014.08
2019-03-31T01:31:34.301Z,1014.12
2019-03-31T01:32:34.305Z,1014.11
2019-03-31T01:33:34.276Z,1014.10
2019-03-31T01:34:34.278Z,1014.12
2019-03-31T01:35:34.255Z,1014.14
2019-03-31T01:36:34.242Z,1014.13
2019-03-31T01:37:34.254Z,1014.14
2019-03-31T01:38:34.222Z,1014.17
2019-03-31T01:39:34.278Z,1014.16
2019-03-31T01:40:34.201Z,1014.13
2019-03-31T01:41:34.190Z,1014.14
2019-03-31T01:42:34.226Z,1014.09
2019-03-31T01:43:34.174Z,1014.18
2019-03-31T01:44:34.159Z,1014.17
2019-03-31T01:45:34.152Z,1014.14
2019-03-31T01:46:34.143Z,1014.11
2019-03-31T01:47:34.131Z,1014.13
2019-03-31T01:48:34.131Z,1014.13
2019-03-31T01:49:34.104Z,1014.12
2019-03-31T01:50:34.096Z,1014.20
2019-03-31T01:51:34.081Z,1014.20
2019-03-31T01:52:34.072Z,1014.24
2019-03-31T01:53:34.094Z,1014.19
2019-03-31T01:54:34.060Z,1014.17
2019-03-31T01:55:34.038Z,1014.17
2019-03-31T01:56:34.038Z,1014.17
2019-03-31T01:57:34.017Z,1014.16
2019-03-31T01:58:34.030Z,1014.14
2019-03-31T01:59:34.001Z,1014.22
2019-03-31T02:00:33.994Z,1014.24
2019-03-31T02:01:33.980Z,1014.30
2019-03-31T02:02:33.969Z,1014.27
2019-03-31T02:03:33.976Z,1014.27
2019-03-31T02:04:33.946Z,1014.23
2019-03-31T02:05:33.934Z,1014.25
2019-03-31T02:06:33.922Z,1014.32
2019-03-31T02:07:33.908Z,1014.22
2019-03-31T02:08:33.912Z,1014.25
2019-03-31T02:09:33.897Z,1014.29
2019-03-31T02:10:33.881Z,1014.27
2019-03-31T02:11:33.870Z,1014.29
2019-03-31T02:12:33.863Z,1014.24
2019-03-31T02:13:33.862Z,1014.26
2019-03-31T02:14:33.840Z,1014.26
2019-03-31T02:15:33.828Z,1014.28
2019-03-31T02:16:33.814Z,1014.30
2019-03-31T02:17:33.810Z,1014.29
2019-03-31T02:18:33.812Z,1014.29
2019-03-31T02:19:33.841Z,1014.33
2019-03-31T02:20:33.772Z,1014.28
2019-03-31T02:21:33.758Z,1014.28
2019-03-31T02:22:33.756Z,1014.27
2019-03-31T02:23:33.754Z,1014.30
2019-03-31T02:24:33.740Z,1014.26
2019-03-31T02:25:33.724Z,1014.27
2019-03-31T02:26:33.705Z,1014.26
2019-03-31T02:27:33.718Z,1014.27
2019-03-31T02:28:33.699Z,1014.23
2019-03-31T02:29:33.675Z,1014.22
2019-03-31T02:30:33.663Z,1014.28
2019-03-31T02:31:33.656Z,1014.27
2019-03-31T02:32:33.682Z,1014.26
2019-03-31T02:33:33.647Z,1014.25
2019-03-31T02:34:33.618Z,1014.28
2019-03-31T02:35:33.618Z,1014.24
2019-03-31T02:36:33.608Z,1014.26
2019-03-31T02:37:33.593Z,1014.28
2019-03-31T02:38:33.602Z,1014.28
2019-03-31T02:39:33.567Z,1014.30
2019-03-31T02:40:33.554Z,1014.28
2019-03-31T02:41:33.544Z,1014.26
2019-03-31T02:42:33.534Z,1014.25
2019-03-31T02:43:33.552Z,1014.29
2019-03-31T02:44:33.517Z,1014.27
2019-03-31T02:45:33.517Z,1014.29
2019-03-31T02:46:33.513Z,1014.30
2019-03-31T02:47:33.489Z,1014.31
2019-03-31T02:48:33.489Z,1014.27
2019-03-31T02:49:33.469Z,1014.30
2019-03-31T02:50:33.454Z,1014.34
2019-03-31T02:51:33.450Z,1014.29
2019-03-31T02:52:33.429Z,1014.34
2019-03-31T02:53:33.437Z,1014.32
2019-03-31T02:54:33.407Z,1014.30
2019-03-31T02:55:33.399Z,1014.30
2019-03-31T02:56:33.392Z,1014.32
2019-03-31T02:57:33.406Z,1014.37
2019-03-31T02:58:33.385Z,1014.43
2019-03-31T02:59:33.371Z,1014.42
2019-03-31T03:00:33.345Z,1014.45
2019-03-31T03:01:33.332Z,1014.38
2019-03-31T03:02:41.595Z,1014.39
2019-03-31T03:03:34.327Z,1014.42
2019-03-31T03:04:33.300Z,1014.44
2019-03-31T03:05:33.290Z,1014.42
2019-03-31T03:06:33.280Z,1014.47
2019-03-31T03:07:33.277Z,1014.40
2019-03-31T03:08:33.287Z,1014.45
2019-03-31T03:09:33.244Z,1014.45
2019-03-31T03:10:33.240Z,1014.51
2019-03-31T03:11:33.226Z,1014.45
2019-03-31T03:12:33.232Z,1014.46
2019-03-31T03:13:33.205Z,1014.49
2019-03-31T03:14:33.208Z,1014.53
2019-03-31T03:15:33.179Z,1014.47
2019-03-31T03:16:33.175Z,1014.42
2019-03-31T03:17:33.162Z,1014.49
2019-03-31T03:18:33.159Z,1014.50
2019-03-31T03:19:33.154Z,1014.50
2019-03-31T03:20:33.129Z,1014.54
2019-03-31T03:21:33.134Z,1014.54
2019-03-31T03:22:33.109Z,1014.57
2019-03-31T03:23:33.097Z,1014.59
2019-03-31T03:24:33.102Z,1014.61
2019-03-31T03:25:33.078Z,1014.60
2019-03-31T03:26:33.062Z,1014.61
2019-03-31T03:27:33.052Z,1014.59
2019-03-31T03:28:34.335Z,1014.62
2019-03-31T03:29:33.080Z,1014.56
2019-03-31T03:30:33.146Z,1014.57
2019-03-31T03:31:33.071Z,1014.57
2019-03-31T03:32:33.008Z,1014.61
2019-03-31T03:33:33.032Z,1014.60
2019-03-31T03:34:33.011Z,1014.59
2019-03-31T03:35:32.981Z,1014.61
2019-03-31T03:36:32.957Z,1014.63
2019-03-31T03:37:32.955Z,1014.64
2019-03-31T03:38:32.939Z,1014.62
2019-03-31T03:39:32.943Z,1014.62
2019-03-31T03:40:33.012Z,1014.66
2019-03-31T03:41:32.902Z,1014.68
2019-03-31T03:42:32.893Z,1014.67
2019-03-31T03:43:32.882Z,1014.66
2019-03-31T03:44:32.894Z,1014.66
2019-03-31T03:45:32.862Z,1014.70
2019-03-31T03:46:32.848Z,1014.67
2019-03-31T03:47:32.836Z,1014.71
2019-03-31T03:48:32.828Z,1014.73
2019-03-31T03:49:32.835Z,1014.73
2019-03-31T03:50:32.822Z,1014.73
2019-03-31T03:51:32.799Z,1014.74
2019-03-31T03:52:32.791Z,1014.77
2019-03-31T03:53:32.833Z,1014.77
2019-03-31T03:54:32.779Z,1014.75
2019-03-31T03:55:32.847Z,1014.76
2019-03-31T03:56:32.959Z,1014.78
2019-03-31T03:57:32.735Z,1014.82
2019-03-31T03:58:32.718Z,1014.79
2019-03-31T03:59:32.946Z,1014.80
2019-03-31T04:00:32.696Z,1014.79
2019-03-31T04:01:32.691Z,1014.79
2019-03-31T04:02:32.710Z,1014.80
2019-03-31T04:03:32.680Z,1014.81
2019-03-31T04:04:32.707Z,1014.80
2019-03-31T04:05:32.663Z,1014.84
2019-03-31T04:06:32.784Z,1014.84
2019-03-31T04:07:32.623Z,1014.85
2019-03-31T04:08:32.624Z,1014.88
2019-03-31T04:09:32.605Z,1014.93
2019-03-31T04:10:32.727Z,1014.94
2019-03-31T04:11:32.676Z,1014.85
2019-03-31T04:12:32.573Z,1014.92
2019-03-31T04:13:32.595Z,1014.92
2019-03-31T04:14:32.825Z,1014.97
2019-03-31T04:15:32.559Z,1014.94
2019-03-31T04:16:32.528Z,1014.95
2019-03-31T04:17:32.572Z,1014.97
2019-03-31T04:18:32.506Z,1015.01
2019-03-31T04:19:32.499Z,1015.02
2019-03-31T04:20:33.353Z,1015.02
2019-03-31T04:21:32.535Z,1015.09
2019-03-31T04:22:32.483Z,1015.08
2019-03-31T04:23:32.458Z,1015.12
2019-03-31T04:24:32.445Z,1015.07
2019-03-31T04:25:32.509Z,1015.11
2019-03-31T04:26:32.433Z,1015.08
2019-03-31T04:27:32.411Z,1015.08
2019-03-31T04:28:32.404Z,1015.09
2019-03-31T04:29:32.400Z,1015.07
2019-03-31T04:30:32.507Z,1015.10
2019-03-31T04:31:32.388Z,1015.04
2019-03-31T04:32:32.364Z,1015.08
2019-03-31T04:33:49.714Z,1015.11
2019-03-31T04:34:33.571Z,1015.12
2019-03-31T04:35:33.478Z,1015.15
2019-03-31T04:36:32.313Z,1015.16
2019-03-31T04:37:32.900Z,1015.18
2019-03-31T04:38:32.290Z,1015.13
2019-03-31T04:39:32.282Z,1015.20
2019-03-31T04:40:32.307Z,1015.22
2019-03-31T04:41:32.261Z,1015.21
2019-03-31T04:42:32.254Z,1015.25
2019-03-31T04:43:32.240Z,1015.21
2019-03-31T04:44:32.230Z,1015.24
2019-03-31T04:45:32.215Z,1015.28
2019-03-31T04:46:32.233Z,1015.29
2019-03-31T04:47:32.201Z,1015.33
2019-03-31T04:48:32.191Z,1015.34
2019-03-31T04:49:32.176Z,1015.38
2019-03-31T04:50:32.167Z,1015.39
2019-03-31T04:51:32.169Z,1015.42
2019-03-31T04:52:32.140Z,1015.43
2019-03-31T04:53:32.133Z,1015.43
2019-03-31T04:54:32.117Z,1015.46
2019-03-31T04:55:32.114Z,1015.44
2019-03-31T04:56:32.113Z,1015.47
2019-03-31T04:57:32.086Z,1015.46
2019-03-31T04:58:32.081Z,1015.51
2019-03-31T04:59:32.064Z,1015.52
2019-03-31T05:00:32.108Z,1015.52
2019-03-31T05:01:32.061Z,1015.52
2019-03-31T05:02:32.806Z,1015.56
2019-03-31T05:03:32.028Z,1015.49
2019-03-31T05:04:32.010Z,1015.54
2019-03-31T05:05:32.159Z,1015.58
2019-03-31T05:06:32.063Z,1015.58
2019-03-31T05:07:31.975Z,1015.63
2019-03-31T05:08:31.968Z,1015.55
2019-03-31T05:09:31.960Z,1015.64
2019-03-31T05:10:31.952Z,1015.63
2019-03-31T05:11:31.952Z,1015.69
2019-03-31T05:12:31.928Z,1015.71
2019-03-31T05:13:31.915Z,1015.71
2019-03-31T05:14:31.924Z,1015.75
2019-03-31T05:15:31.889Z,1015.79
2019-03-31T05:16:31.900Z,1015.82
2019-03-31T05:17:31.868Z,1015.81
2019-03-31T05:18:31.859Z,1015.90
2019-03-31T05:19:31.853Z,1015.89
2019-03-31T05:20:31.837Z,1015.94
2019-03-31T05:21:31.839Z,1016.04
2019-03-31T05:22:31.835Z,1016.02
2019-03-31T05:23:31.802Z,1016.07
2019-03-31T05:24:31.796Z,1016.07
2019-03-31T05:25:31.780Z,1016.13
2019-03-31T05:26:31.768Z,1016.13
2019-03-31T05:27:31.774Z,1016.22
2019-03-31T05:28:31.750Z,1016.21
2019-03-31T05:29:31.736Z,1016.27
2019-03-31T05:30:31.727Z,1016.23
2019-03-31T05:31:31.721Z,1016.30
2019-03-31T05:32:31.767Z,1016.29
2019-03-31T05:33:31.695Z,1016.32
2019-03-31T05:34:31.684Z,1016.29
2019-03-31T05:35:31.682Z,1016.34
2019-03-31T05:36:31.665Z,1016.39
2019-03-31T05:37:31.676Z,1016.38
2019-03-31T05:38:31.643Z,1016.47
2019-03-31T05:39:31.639Z,1016.50
2019-03-31T05:40:31.622Z,1016.48
2019-03-31T05:41:31.626Z,1016.60
2019-03-31T05:42:31.622Z,1016.58
2019-03-31T05:43:31.592Z,1016.59
2019-03-31T05:44:31.580Z,1016.60
2019-03-31T05:45:31.565Z,1016.61
2019-03-31T05:46:31.558Z,1016.70
2019-03-31T05:47:31.564Z,1016.64
2019-03-31T05:48:31.536Z,1016.70
2019-03-31T05:49:31.532Z,1016.72
2019-03-31T05:50:31.516Z,1016.69
2019-03-31T05:51:31.505Z,1016.76
2019-03-31T05:52:31.509Z,1016.76
2019-03-31T05:53:31.488Z,1016.75
2019-03-31T05:54:31.477Z,1016.73
2019-03-31T05:55:31.468Z,1016.81
2019-03-31T05:56:31.458Z,1016.84
2019-03-31T05:57:31.468Z,1016.83
2019-03-31T05:58:31.470Z,1016.87
2019-03-31T05:59:31.426Z,1016.89
2019-03-31T06:00:31.425Z,1016.89
2019-03-31T06:01:31.409Z,1016.93
2019-03-31T06:02:31.413Z,1016.89
2019-03-31T06:03:31.386Z,1016.89
2019-03-31T06:04:33.501Z,1016.89
2019-03-31T06:05:31.367Z,1016.91
2019-03-31T06:06:31.352Z,1016.97
2019-03-31T06:07:31.356Z,1016.90
2019-03-31T06:08:31.334Z,1016.96
2019-03-31T06:09:31.318Z,1016.95
2019-03-31T06:10:31.310Z,1016.95
2019-03-31T06:11:31.302Z,1016.96
2019-03-31T06:12:31.307Z,1016.95
2019-03-31T06:13:31.277Z,1016.95
2019-03-31T06:14:31.263Z,1016.99
2019-03-31T06:15:31.264Z,1016.97
2019-03-31T06:16:31.242Z,1016.98
2019-03-31T06:17:31.252Z,1016.99
2019-03-31T06:18:31.224Z,1017.01
2019-03-31T06:19:31.212Z,1017.02
2019-03-31T06:20:31.203Z,1017.06
2019-03-31T06:21:31.189Z,1017.04
2019-03-31T06:22:31.196Z,1017.04
2019-03-31T06:23:31.169Z,1017.10
2019-03-31T06:24:31.160Z,1017.05
2019-03-31T06:25:31.153Z,1017.09
2019-03-31T06:26:31.139Z,1017.09
2019-03-31T06:27:31.162Z,1017.09
2019-03-31T06:28:31.120Z,1017.08
2019-03-31T06:29:31.109Z,1017.09
2019-03-31T06:30:31.096Z,1017.12
2019-03-31T06:31:31.081Z,1017.18
2019-03-31T06:32:31.097Z,1017.14
2019-03-31T06:33:31.068Z,1017.13
2019-03-31T06:34:31.055Z,1017.19
2019-03-31T06:35:31.049Z,1017.26
2019-03-31T06:36:31.032Z,1017.26
2019-03-31T06:37:31.055Z,1017.25
2019-03-31T06:38:31.013Z,1017.33
2019-03-31T06:39:34.133Z,1017.30
2019-03-31T06:40:30.989Z,1017.36
2019-03-31T06:41:30.978Z,1017.31
2019-03-31T06:42:30.989Z,1017.32
2019-03-31T06:43:30.968Z,1017.30
2019-03-31T06:44:30.947Z,1017.35
2019-03-31T06:45:30.937Z,1017.25
2019-03-31T06:46:30.925Z,1017.28
2019-03-31T06:47:30.908Z,1017.24
2019-03-31T06:48:30.912Z,1017.23
2019-03-31T06:49:30.889Z,1017.28
2019-03-31T06:50:30.878Z,1017.27
2019-03-31T06:51:30.865Z,1017.27
2019-03-31T06:52:30.852Z,1017.28
2019-03-31T06:53:30.864Z,1017.29
2019-03-31T06:54:30.838Z,1017.31
2019-03-31T06:55:30.897Z,1017.29
2019-03-31T06:56:30.811Z,1017.35
2019-03-31T06:57:30.802Z,1017.38
2019-03-31T06:58:30.819Z,1017.40
2019-03-31T06:59:30.781Z,1017.31
2019-03-31T07:00:30.785Z,1017.38
2019-03-31T07:01:30.761Z,1017.31
2019-03-31T07:02:30.752Z,1017.36
2019-03-31T07:03:30.752Z,1017.31
2019-03-31T07:04:30.746Z,1017.38
2019-03-31T07:05:30.720Z,1017.43
2019-03-31T07:06:30.706Z,1017.39
2019-03-31T07:07:30.694Z,1017.36
2019-03-31T07:08:30.697Z,1017.37
2019-03-31T07:09:30.670Z,1017.39
2019-03-31T07:10:30.666Z,1017.35
2019-03-31T07:11:30.652Z,1017.41
2019-03-31T07:12:30.635Z,1017.42
2019-03-31T07:13:30.636Z,1017.42
2019-03-31T07:14:30.622Z,1017.45
2019-03-31T07:15:30.605Z,1017.49
2019-03-31T07:16:30.599Z,1017.48
2019-03-31T07:17:30.594Z,1017.43
2019-03-31T07:18:30.593Z,1017.53
2019-03-31T07:19:30.561Z,1017.56
2019-03-31T07:20:30.550Z,1017.54
2019-03-31T07:21:30.545Z,1017.54
2019-03-31T07:22:30.527Z,1017.59
2019-03-31T07:23:30.534Z,1017.58
2019-03-31T07:24:30.511Z,1017.56
2019-03-31T07:25:30.501Z,1017.59
2019-03-31T07:26:30.482Z,1017.56
2019-03-31T07:27:30.470Z,1017.60
2019-03-31T07:28:30.482Z,1017.66
2019-03-31T07:29:30.456Z,1017.61
2019-03-31T07:30:30.438Z,1017.66
2019-03-31T07:31:30.433Z,1017.63
2019-03-31T07:32:30.422Z,1017.67
2019-03-31T07:33:30.417Z,1017.71
2019-03-31T07:34:30.431Z,1017.75
2019-03-31T07:35:30.388Z,1017.72
2019-03-31T07:36:30.376Z,1017.79
2019-03-31T07:37:30.372Z,1017.81
2019-03-31T07:38:38.794Z,1017.79
2019-03-31T07:39:31.576Z,1017.84
2019-03-31T07:40:30.544Z,1017.89
2019-03-31T07:41:30.441Z,1017.88
2019-03-31T07:42:30.472Z,1017.87
2019-03-31T07:43:30.314Z,1017.88
2019-03-31T07:44:30.305Z,1017.85
2019-03-31T07:45:30.279Z,1017.91
2019-03-31T07:46:30.268Z,1017.93
2019-03-31T07:47:30.264Z,1017.91
2019-03-31T07:48:30.252Z,1017.94
2019-03-31T07:49:30.243Z,1017.94
2019-03-31T07:50:30.223Z,1017.93
2019-03-31T07:51:30.213Z,1017.96
2019-03-31T07:52:30.204Z,1017.92
2019-03-31T07:53:30.192Z,1017.94
2019-03-31T07:54:30.197Z,1017.92
2019-03-31T07:55:30.168Z,1017.96
2019-03-31T07:56:30.157Z,1018.03
2019-03-31T07:57:30.141Z,1018.03
2019-03-31T07:58:30.196Z,1018.04
2019-03-31T07:59:30.170Z,1018.03
2019-03-31T08:00:30.114Z,1018.06
2019-03-31T08:01:30.101Z,1018.08
2019-03-31T08:02:30.094Z,1018.08
2019-03-31T08:03:30.089Z,1018.08
2019-03-31T08:04:30.083Z,1018.06
2019-03-31T08:05:33.311Z,1018.07
2019-03-31T08:06:31.049Z,1018.05
2019-03-31T08:07:30.035Z,1018.12
2019-03-31T08:08:30.028Z,1018.08
2019-03-31T08:09:30.033Z,1018.10
2019-03-31T08:10:30.002Z,1018.17
2019-03-31T08:11:29.993Z,1018.22
2019-03-31T08:12:30.004Z,1018.15
2019-03-31T08:13:29.968Z,1018.21
2019-03-31T08:14:29.971Z,1018.15
2019-03-31T08:15:29.951Z,1018.17
2019-03-31T08:16:29.935Z,1018.19
2019-03-31T08:17:29.926Z,1018.22
2019-03-31T08:18:29.917Z,1018.29
2019-03-31T08:19:29.928Z,1018.25
2019-03-31T08:20:29.890Z,1018.28
2019-03-31T08:21:29.880Z,1018.28
2019-03-31T08:22:29.876Z,1018.31
2019-03-31T08:23:29.859Z,1018.27
2019-03-31T08:24:29.851Z,1018.29
2019-03-31T08:25:29.855Z,1018.33
2019-03-31T08:26:29.824Z,1018.35
2019-03-31T08:27:29.823Z,1018.35
2019-03-31T08:28:29.812Z,1018.38
2019-03-31T08:29:29.794Z,1018.49
2019-03-31T08:30:29.803Z,1018.41
2019-03-31T08:31:29.769Z,1018.46
2019-03-31T08:32:29.764Z,1018.41
2019-03-31T08:33:29.754Z,1018.41
2019-03-31T08:34:29.735Z,1018.41
2019-03-31T08:35:29.742Z,1018.48
2019-03-31T08:36:29.718Z,1018.43
2019-03-31T08:37:29.708Z,1018.42
2019-03-31T08:38:29.692Z,1018.48
2019-03-31T08:39:29.753Z,1018.48
2019-03-31T08:40:29.689Z,1018.46
2019-03-31T08:41:29.663Z,1018.46
2019-03-31T08:42:29.651Z,1018.48
2019-03-31T08:43:29.647Z,1018.51
2019-03-31T08:44:29.625Z,1018.51
2019-03-31T08:45:30.592Z,1018.55
2019-03-31T08:46:29.612Z,1018.52
2019-03-31T08:47:29.592Z,1018.60
2019-03-31T08:48:29.583Z,1018.55
2019-03-31T08:49:29.571Z,1018.57
2019-03-31T08:50:29.579Z,1018.55
2019-03-31T08:51:29.548Z,1018.61
2019-03-31T08:52:29.546Z,1018.59
2019-03-31T08:53:29.530Z,1018.62
2019-03-31T08:54:29.525Z,1018.65
2019-03-31T08:55:29.524Z,1018.56
2019-03-31T08:56:29.494Z,1018.63
2019-03-31T08:57:29.487Z,1018.65
2019-03-31T08:58:29.478Z,1018.62
2019-03-31T08:59:29.464Z,1018.73
2019-03-31T09:00:29.468Z,1018.71
2019-03-31T09:01:29.444Z,1018.71
2019-03-31T09:02:29.438Z,1018.78
2019-03-31T09:03:29.420Z,1018.70
2019-03-31T09:04:29.461Z,1018.72
2019-03-31T09:05:29.420Z,1018.74
2019-03-31T09:06:29.416Z,1018.71
2019-03-31T09:07:29.382Z,1018.73
2019-03-31T09:08:29.374Z,1018.77
2019-03-31T09:09:29.355Z,1018.75
2019-03-31T09:10:29.377Z,1018.77
2019-03-31T09:11:29.352Z,1018.76
2019-03-31T09:12:29.328Z,1018.76
2019-03-31T09:13:29.322Z,1018.75
2019-03-31T09:14:29.312Z,1018.81
2019-03-31T09:15:29.324Z,1018.73
2019-03-31T09:16:29.292Z,1018.74
2019-03-31T09:17:29.275Z,1018.76
2019-03-31T09:18:29.272Z,1018.77
2019-03-31T09:19:29.258Z,1018.81
2019-03-31T09:20:29.247Z,1018.71
2019-03-31T09:21:29.257Z,1018.81
2019-03-31T09:22:29.230Z,1018.82
2019-03-31T09:23:29.225Z,1018.85
2019-03-31T09:24:29.210Z,1018.84
2019-03-31T09:25:29.192Z,1018.89
2019-03-31T09:26:29.200Z,1018.89
2019-03-31T09:27:29.186Z,1018.85
2019-03-31T09:28:29.166Z,1018.88
2019-03-31T09:29:29.155Z,1018.89
2019-03-31T09:30:29.149Z,1018.93
2019-03-31T09:31:29.152Z,1018.95
2019-03-31T09:32:29.119Z,1018.98
2019-03-31T09:33:29.114Z,1019.03
2019-03-31T09:34:29.107Z,1019.01
2019-03-31T09:35:29.092Z,1019.02
2019-03-31T09:36:29.092Z,1019.01
2019-03-31T09:37:29.070Z,1019.04
2019-03-31T09:38:29.059Z,1019.03
2019-03-31T09:39:29.049Z,1019.05
2019-03-31T09:40:29.046Z,1019.04
2019-03-31T09:41:29.040Z,1019.09
2019-03-31T09:42:29.014Z,1019.11
2019-03-31T09:43:29.011Z,1019.10
2019-03-31T09:44:30.356Z,1019.10
2019-03-31T09:45:28.983Z,1019.09
2019-03-31T09:46:29.067Z,1019.09
2019-03-31T09:47:28.972Z,1019.13
2019-03-31T09:48:28.956Z,1019.08
2019-03-31T09:49:28.952Z,1019.12
2019-03-31T09:50:28.936Z,1019.15
2019-03-31T09:51:28.944Z,1019.09
2019-03-31T09:52:28.915Z,1019.14
2019-03-31T09:53:28.904Z,1019.11
2019-03-31T09:54:28.896Z,1019.20
2019-03-31T09:55:28.890Z,1019.14
2019-03-31T09:56:28.922Z,1019.13
2019-03-31T09:57:28.873Z,1019.14
2019-03-31T09:58:28.852Z,1019.12
2019-03-31T09:59:28.839Z,1019.13
2019-03-31T10:00:28.834Z,1019.13
2019-03-31T10:01:28.823Z,1019.09
2019-03-31T10:02:28.838Z,1019.12
2019-03-31T10:03:28.803Z,1019.06
2019-03-31T10:04:28.799Z,1019.10
2019-03-31T10:05:28.782Z,1019.06
2019-03-31T10:06:30.427Z,1019.01
2019-03-31T10:07:28.777Z,1019.00
2019-03-31T10:08:28.754Z,1019.02
2019-03-31T10:09:28.766Z,1019.07
2019-03-31T10:10:28.733Z,1019.08
2019-03-31T10:11:28.733Z,1019.04
2019-03-31T10:12:28.717Z,1019.08
2019-03-31T10:13:28.692Z,1019.09
2019-03-31T10:14:28.704Z,1019.07
2019-03-31T10:15:28.671Z,1019.10
2019-03-31T10:16:28.665Z,1019.01
2019-03-31T10:17:28.671Z,1019.07
2019-03-31T10:18:28.639Z,1019.05
2019-03-31T10:19:28.628Z,1019.06
2019-03-31T10:20:31.470Z,1019.11
2019-03-31T10:21:28.617Z,1019.10
2019-03-31T10:22:28.614Z,1019.05
2019-03-31T10:23:28.595Z,1019.10
2019-03-31T10:24:28.635Z,1019.05
2019-03-31T10:25:28.564Z,1019.09
2019-03-31T10:26:32.073Z,1019.03
2019-03-31T10:27:28.564Z,1019.10
2019-03-31T10:28:28.541Z,1019.01
2019-03-31T10:29:28.526Z,1019.03
2019-03-31T10:30:28.509Z,1018.99
2019-03-31T10:31:28.503Z,1019.02
2019-03-31T10:32:28.490Z,1019.04
2019-03-31T10:33:28.497Z,1019.07
2019-03-31T10:34:28.487Z,1019.01
2019-03-31T10:35:28.458Z,1019.03
2019-03-31T10:36:28.452Z,1019.05
2019-03-31T10:37:28.443Z,1019.06
2019-03-31T10:38:28.452Z,1019.10
2019-03-31T10:39:28.420Z,1019.07
2019-03-31T10:40:28.421Z,1019.08
2019-03-31T10:41:30.972Z,1019.13
2019-03-31T10:42:28.384Z,1019.08
2019-03-31T10:43:28.394Z,1019.11
2019-03-31T10:44:28.364Z,1019.07
2019-03-31T10:45:28.356Z,1019.12
2019-03-31T10:46:28.344Z,1019.14
2019-03-31T10:47:28.331Z,1019.12
2019-03-31T10:48:28.336Z,1019.08
2019-03-31T10:49:28.314Z,1019.03
2019-03-31T10:50:28.303Z,1019.03
2019-03-31T10:51:28.298Z,1019.04
2019-03-31T10:52:28.279Z,1019.01
2019-03-31T10:53:28.309Z,1019.05
2019-03-31T10:54:28.260Z,1019.08
2019-03-31T10:55:28.257Z,1019.07
2019-03-31T10:56:28.243Z,1019.13
2019-03-31T10:57:28.227Z,1019.11
2019-03-31T10:58:28.218Z,1019.17
2019-03-31T10:59:28.231Z,1019.19
2019-03-31T11:00:28.273Z,1019.21
2019-03-31T11:01:28.186Z,1019.20
2019-03-31T11:02:28.170Z,1019.20
2019-03-31T11:03:28.166Z,1019.19
2019-03-31T11:04:28.180Z,1019.20
2019-03-31T11:05:28.139Z,1019.18
2019-03-31T11:06:28.129Z,1019.18
2019-03-31T11:07:28.135Z,1019.19
2019-03-31T11:08:28.107Z,1019.23
2019-03-31T11:09:28.162Z,1019.19
2019-03-31T11:10:28.089Z,1019.18
2019-03-31T11:11:28.078Z,1019.17
2019-03-31T11:12:28.066Z,1019.15
2019-03-31T11:13:28.053Z,1019.20
2019-03-31T11:14:28.105Z,1019.17
2019-03-31T11:15:28.040Z,1019.13
2019-03-31T11:16:28.025Z,1019.10
2019-03-31T11:17:28.012Z,1019.07
2019-03-31T11:18:28.014Z,1019.04
2019-03-31T11:19:28.016Z,1019.07
2019-03-31T11:20:27.981Z,1019.13
2019-03-31T11:21:27.971Z,1019.13
2019-03-31T11:22:27.982Z,1019.08
2019-03-31T11:23:27.955Z,1019.14
2019-03-31T11:24:27.952Z,1019.10
2019-03-31T11:25:29.429Z,1019.19
2019-03-31T11:26:27.926Z,1019.20
2019-03-31T11:27:27.907Z,1019.17
2019-03-31T11:28:27.905Z,1019.17
2019-03-31T11:29:27.913Z,1019.09
2019-03-31T11:30:27.876Z,1019.08
2019-03-31T11:31:27.867Z,1019.09
2019-03-31T11:32:27.855Z,1019.11
2019-03-31T11:33:27.843Z,1019.16
2019-03-31T11:34:27.831Z,1019.10
2019-03-31T11:35:27.839Z,1019.12
2019-03-31T11:36:27.813Z,1019.09
2019-03-31T11:37:27.806Z,1019.08
2019-03-31T11:38:27.788Z,1019.06
2019-03-31T11:39:27.779Z,1019.15
2019-03-31T11:40:27.779Z,1019.15
2019-03-31T11:41:27.764Z,1019.11
2019-03-31T11:42:27.748Z,1019.17
2019-03-31T11:43:27.736Z,1019.14
2019-03-31T11:44:27.957Z,1019.14
2019-03-31T11:45:27.728Z,1019.21
2019-03-31T11:46:27.707Z,1019.17
2019-03-31T11:47:27.702Z,1019.14
2019-03-31T11:48:27.686Z,1019.10
2019-03-31T11:49:27.676Z,1019.19
2019-03-31T11:50:27.681Z,1019.17
2019-03-31T11:51:27.649Z,1019.22
2019-03-31T11:52:27.644Z,1019.23
2019-03-31T11:53:27.639Z,1019.20
2019-03-31T11:54:27.627Z,1019.20
2019-03-31T11:55:27.627Z,1019.20
2019-03-31T11:56:27.604Z,1019.21
2019-03-31T11:57:27.684Z,1019.17
2019-03-31T11:58:27.609Z,1019.26
2019-03-31T11:59:27.565Z,1019.27
2019-03-31T12:00:27.578Z,1019.29
2019-03-31T12:01:27.554Z,1019.28
2019-03-31T12:02:27.913Z,1019.26
2019-03-31T12:03:30.738Z,1019.24
2019-03-31T12:04:27.516Z,1019.26
2019-03-31T12:05:27.535Z,1019.29